createdAt,value
2019-06-10T00:00:37.410Z,2.80
2019-06-10T00:03:07.288Z,2.62
2019-06-10T00:05:37.177Z,2.87
2019-06-10T00:08:07.250Z,2.50
2019-06-10T00:10:37.098Z,2.70
2019-06-10T00:13:07.391Z,2.90
2019-06-10T00:15:40.771Z,2.70
2019-06-10T00:18:30.832Z,2.92
2019-06-10T00:20:41.776Z,2.80
2019-06-10T00:23:12.554Z,2.67
2019-06-10T00:25:45.507Z,3.00
2019-06-10T00:28:15.177Z,3.50
2019-06-10T00:30:45.940Z,3.45
2019-06-10T00:33:15.613Z,3.30
2019-06-10T00:35:46.366Z,2.42
2019-06-10T00:38:15.996Z,2.98
2019-06-10T00:40:45.947Z,3.20
2019-06-10T00:43:15.823Z,3.12
2019-06-10T00:45:46.080Z,2.50
2019-06-10T00:48:25.058Z,3.33
2019-06-10T00:50:48.027Z,2.45
2019-06-10T00:53:18.083Z,2.90
2019-06-10T00:55:47.969Z,4.80
2019-06-10T00:58:21.470Z,2.70
2019-06-10T01:00:51.825Z,2.62
2019-06-10T01:03:21.509Z,3.27
2019-06-10T01:05:51.244Z,3.00
2019-06-10T01:08:21.598Z,2.40
2019-06-10T01:10:52.316Z,2.80
2019-06-10T01:13:22.145Z,3.00
2019-06-10T01:15:51.875Z,2.60
2019-06-10T01:18:34.869Z,2.42
2019-06-10T01:20:53.064Z,2.80
2019-06-10T01:23:22.834Z,3.30
2019-06-10T01:25:52.538Z,2.00
2019-06-10T01:28:22.330Z,2.90
2019-06-10T01:30:52.007Z,3.22
2019-06-10T01:33:21.880Z,2.80
2019-06-10T01:35:51.641Z,2.60
2019-06-10T01:38:21.414Z,2.80
2019-06-10T01:40:51.122Z,2.80
2019-06-10T01:43:21.412Z,2.72
2019-06-10T01:45:52.121Z,2.80
2019-06-10T01:48:21.754Z,2.47
2019-06-10T01:50:51.566Z,2.92
2019-06-10T01:53:22.208Z,2.75
2019-06-10T01:55:52.135Z,2.80
2019-06-10T01:58:23.683Z,2.80
2019-06-10T02:01:01.429Z,2.72
2019-06-10T02:03:43.963Z,2.77
2019-06-10T02:06:17.698Z,2.90
2019-06-10T02:08:45.048Z,3.12
2019-06-10T02:11:17.622Z,3.30
2019-06-10T02:13:47.152Z,2.75
2019-06-10T02:16:17.773Z,2.67
2019-06-10T02:18:59.469Z,2.83
2019-06-10T02:21:23.951Z,2.58
2019-06-10T02:23:52.682Z,3.17
2019-06-10T02:26:23.675Z,3.10
2019-06-10T02:28:53.558Z,3.25
2019-06-10T02:31:30.541Z,2.80
2019-06-10T02:33:56.007Z,2.80
2019-06-10T02:36:35.443Z,2.62
2019-06-10T02:39:04.325Z,2.95
2019-06-10T02:41:36.348Z,2.45
2019-06-10T02:44:07.309Z,2.90
2019-06-10T02:46:37.140Z,3.27
2019-06-10T02:49:26.437Z,3.02
2019-06-10T02:51:38.187Z,2.90
2019-06-10T02:54:08.032Z,2.75
2019-06-10T02:56:37.834Z,2.80
2019-06-10T02:59:08.648Z,3.98
2019-06-10T03:01:38.569Z,4.50
2019-06-10T03:04:08.633Z,4.72
2019-06-10T03:06:40.164Z,4.12
2019-06-10T03:09:09.770Z,4.28
2019-06-10T03:11:39.848Z,4.25
2019-06-10T03:14:09.983Z,4.12
2019-06-10T03:16:52.578Z,4.33
2019-06-10T03:19:40.926Z,4.12
2019-06-10T03:21:53.350Z,4.45
2019-06-10T03:24:25.199Z,4.17
2019-06-10T03:26:54.942Z,4.60
2019-06-10T03:29:26.577Z,4.40
2019-06-10T03:31:56.815Z,5.45
2019-06-10T03:34:33.588Z,4.75
2019-06-10T03:36:58.161Z,3.85
2019-06-10T03:39:28.627Z,5.40
2019-06-10T03:41:58.635Z,4.87
2019-06-10T03:44:28.538Z,4.90
2019-06-10T03:46:58.342Z,5.47
2019-06-10T03:49:28.851Z,5.00
2019-06-10T03:51:58.667Z,5.60
2019-06-10T03:54:29.518Z,4.75
2019-06-10T03:56:59.383Z,4.78
2019-06-10T03:59:29.619Z,5.37
2019-06-10T04:02:02.314Z,5.03
2019-06-10T04:04:32.953Z,5.75
2019-06-10T04:07:03.855Z,6.22
2019-06-10T04:09:34.016Z,5.25
2019-06-10T04:12:04.885Z,6.35
2019-06-10T04:14:35.536Z,6.50
2019-06-10T04:17:05.217Z,6.08
2019-06-10T04:19:34.894Z,5.42
2019-06-10T04:22:05.230Z,5.25
2019-06-10T04:24:36.266Z,5.40
2019-06-10T04:27:05.969Z,5.78
2019-06-10T04:29:35.864Z,6.30
2019-06-10T04:32:05.573Z,5.90
2019-06-10T04:34:35.231Z,6.47
2019-06-10T04:37:04.942Z,7.40
2019-06-10T04:39:34.591Z,5.95
2019-06-10T04:42:04.336Z,6.95
2019-06-10T04:44:33.982Z,6.45
2019-06-10T04:47:03.834Z,7.03
2019-06-10T04:49:33.463Z,7.10
2019-06-10T04:52:03.372Z,7.42
2019-06-10T04:54:34.308Z,7.65
2019-06-10T04:57:04.201Z,7.75
2019-06-10T04:59:33.948Z,8.10
2019-06-10T05:02:05.619Z,7.75
2019-06-10T05:04:35.049Z,7.37
2019-06-10T05:07:05.309Z,7.10
2019-06-10T05:09:35.574Z,8.03
2019-06-10T05:12:05.484Z,7.87
2019-06-10T05:14:35.097Z,7.65
2019-06-10T05:17:06.024Z,7.95
2019-06-10T05:19:36.043Z,10.00
2019-06-10T05:22:07.389Z,10.08
2019-06-10T05:24:37.064Z,8.25
2019-06-10T05:27:07.902Z,8.38
2019-06-10T05:29:37.547Z,8.98
2019-06-10T05:32:07.258Z,8.60
2019-06-10T05:34:36.898Z,8.75
2019-06-10T05:37:06.618Z,9.03
2019-06-10T05:39:36.697Z,8.70
2019-06-10T05:42:06.531Z,7.92
2019-06-10T05:44:36.384Z,9.13
2019-06-10T05:47:06.678Z,9.15
2019-06-10T05:49:36.501Z,7.95
2019-06-10T05:52:06.222Z,8.55
2019-06-10T05:54:35.923Z,8.20
2019-06-10T05:57:05.817Z,7.10
2019-06-10T05:59:35.946Z,6.42
2019-06-10T06:02:06.829Z,6.28
2019-06-10T06:04:36.905Z,6.87
2019-06-10T06:07:07.013Z,5.97
2019-06-10T06:09:37.750Z,6.37
2019-06-10T06:12:11.082Z,5.90
2019-06-10T06:14:39.267Z,6.17
2019-06-10T06:17:08.925Z,6.45
2019-06-10T06:19:38.926Z,6.20
2019-06-10T06:22:13.002Z,5.47
2019-06-10T06:24:42.955Z,5.78
2019-06-10T06:27:13.205Z,6.78
2019-06-10T06:29:43.271Z,5.62
2019-06-10T06:32:15.851Z,5.40
2019-06-10T06:34:45.657Z,5.75
2019-06-10T06:37:15.622Z,5.12
2019-06-10T06:39:45.248Z,5.05
2019-06-10T06:42:15.038Z,4.50
2019-06-10T06:44:44.852Z,4.40
2019-06-10T06:47:16.385Z,4.80
2019-06-10T06:49:47.369Z,5.10
2019-06-10T06:52:17.065Z,5.00
2019-06-10T06:54:47.523Z,4.75
2019-06-10T06:57:17.636Z,5.28
2019-06-10T06:59:47.293Z,5.00
2019-06-10T07:02:17.212Z,5.20
2019-06-10T07:04:47.362Z,5.20
2019-06-10T07:07:19.277Z,5.00
2019-06-10T07:09:52.898Z,5.37
2019-06-10T07:12:25.510Z,5.35
2019-06-10T07:14:55.385Z,5.33
2019-06-10T07:17:25.090Z,4.53
2019-06-10T07:19:57.588Z,5.03
2019-06-10T07:22:26.925Z,4.75
2019-06-10T07:24:56.754Z,4.75
2019-06-10T07:27:26.439Z,4.60
2019-06-10T07:29:56.277Z,5.10
2019-06-10T07:32:26.175Z,5.12
2019-06-10T07:34:56.371Z,5.20
2019-06-10T07:37:26.130Z,5.30
2019-06-10T07:39:55.850Z,5.05
2019-06-10T07:42:25.894Z,5.15
2019-06-10T07:44:55.650Z,5.10
2019-06-10T07:47:25.443Z,5.12
2019-06-10T07:49:55.526Z,4.83
2019-06-10T07:52:25.265Z,4.80
2019-06-10T07:54:55.373Z,4.33
2019-06-10T07:57:25.016Z,4.90
2019-06-10T07:59:55.201Z,4.90
2019-06-10T08:02:26.596Z,5.08
2019-06-10T08:04:56.240Z,5.08
2019-06-10T08:07:25.957Z,5.05
2019-06-10T08:09:55.668Z,5.03
2019-06-10T08:12:26.803Z,4.60
2019-06-10T08:15:08.572Z,5.10
2019-06-10T08:17:38.227Z,5.28
2019-06-10T08:20:10.031Z,4.62
2019-06-10T08:22:45.345Z,4.50
2019-06-10T08:25:12.462Z,5.08
2019-06-10T08:27:45.421Z,4.97
2019-06-10T08:30:22.185Z,4.47
2019-06-10T08:32:47.142Z,7.60
2019-06-10T08:35:16.864Z,4.97
2019-06-10T08:37:47.443Z,5.22
2019-06-10T08:40:17.311Z,5.28
2019-06-10T08:42:48.751Z,4.55
2019-06-10T08:45:18.428Z,4.50
2019-06-10T08:47:49.163Z,4.42
2019-06-10T08:50:22.247Z,5.10
2019-06-10T08:53:07.290Z,5.10
2019-06-10T08:55:22.821Z,5.03
2019-06-10T08:57:54.052Z,5.17
2019-06-10T09:00:25.648Z,5.35
2019-06-10T09:02:55.530Z,5.05
2019-06-10T09:05:26.020Z,5.22
2019-06-10T09:07:56.581Z,5.58
2019-06-10T09:10:26.450Z,5.53
2019-06-10T09:12:56.255Z,5.12
2019-06-10T09:15:26.225Z,5.20
2019-06-10T09:17:56.464Z,5.80
2019-06-10T09:20:27.178Z,5.72
2019-06-10T09:23:15.138Z,5.00
2019-06-10T09:27:59.000Z,5.17
2019-06-10T09:30:29.487Z,5.45
2019-06-10T09:33:01.554Z,4.95
2019-06-10T09:35:32.340Z,5.33
2019-06-10T09:38:03.687Z,5.55
2019-06-10T09:41:01.333Z,5.50
2019-06-10T09:43:26.141Z,5.28
2019-06-10T09:45:59.738Z,5.95
2019-06-10T09:48:29.685Z,4.22
2019-06-10T09:51:02.268Z,5.00
2019-06-10T09:53:42.008Z,5.22
2019-06-10T09:56:04.224Z,9.85
2019-06-10T09:58:34.073Z,5.28
2019-06-10T10:01:04.779Z,6.33
2019-06-10T10:03:34.715Z,6.05
2019-06-10T10:06:14.506Z,5.92
2019-06-10T10:08:37.203Z,4.83
2019-06-10T10:11:06.882Z,5.50
2019-06-10T10:13:36.554Z,6.70
2019-06-10T10:16:06.394Z,5.83
2019-06-10T10:18:36.197Z,5.58
2019-06-10T10:21:05.989Z,5.58
2019-06-10T10:23:50.227Z,6.83
2019-06-10T10:26:07.822Z,7.30
2019-06-10T10:28:38.280Z,5.80
2019-06-10T10:31:09.640Z,4.75
2019-06-10T10:33:40.093Z,5.35
2019-06-10T10:36:13.234Z,5.55
2019-06-10T10:38:42.617Z,5.80
2019-06-10T10:41:13.531Z,5.20
2019-06-10T10:43:47.058Z,5.70
2019-06-10T10:46:17.573Z,5.50
2019-06-10T10:48:48.934Z,5.67
2019-06-10T10:51:19.629Z,5.85
2019-06-10T10:54:13.420Z,5.70
2019-06-10T10:56:22.373Z,6.37
2019-06-10T10:58:56.372Z,6.03
2019-06-10T11:01:28.164Z,5.90
2019-06-10T11:03:59.296Z,5.42
2019-06-10T11:06:32.139Z,6.03
2019-06-10T11:09:01.382Z,6.15
2019-06-10T11:11:33.398Z,8.40
2019-06-10T11:14:05.456Z,6.50
2019-06-10T11:16:36.146Z,6.12
2019-06-10T11:19:06.025Z,6.37
2019-06-10T11:21:37.222Z,6.62
2019-06-10T11:24:09.499Z,5.70
2019-06-10T11:26:40.015Z,6.65
2019-06-10T11:29:13.318Z,5.50
2019-06-10T11:31:43.394Z,6.55
2019-06-10T11:34:13.267Z,5.85
2019-06-10T11:36:43.088Z,6.53
2019-06-10T11:39:13.441Z,7.12
2019-06-10T11:41:43.803Z,7.12
2019-06-10T11:44:13.879Z,6.80
2019-06-10T11:46:44.439Z,5.80
2019-06-10T11:49:14.398Z,6.28
2019-06-10T11:51:44.373Z,6.00
2019-06-10T11:54:14.132Z,6.28
2019-06-10T11:56:44.034Z,6.87
2019-06-10T11:59:14.107Z,6.80
2019-06-10T12:01:43.969Z,6.60
2019-06-10T12:04:13.897Z,7.15
2019-06-10T12:06:44.412Z,7.33
2019-06-10T12:09:14.955Z,6.67
2019-06-10T12:11:44.758Z,6.70
2019-06-10T12:14:15.779Z,6.53
2019-06-10T12:19:18.655Z,6.00
2019-06-10T12:21:49.748Z,5.90
2019-06-10T12:24:22.881Z,7.45
2019-06-10T12:26:57.986Z,7.67
2019-06-10T12:29:27.496Z,6.90
2019-06-10T12:32:02.851Z,6.22
2019-06-10T12:34:33.311Z,5.72
2019-06-10T12:37:10.846Z,6.33
2019-06-10T12:39:35.723Z,5.85
2019-06-10T12:42:06.914Z,6.35
2019-06-10T12:44:37.990Z,6.72
2019-06-10T12:47:08.711Z,6.40
2019-06-10T12:49:38.562Z,6.50
2019-06-10T12:52:08.538Z,7.10
2019-06-10T12:54:38.691Z,6.28
2019-06-10T12:57:08.763Z,6.83
2019-06-10T12:59:38.972Z,6.95
2019-06-10T13:02:19.074Z,6.00
2019-06-10T13:04:46.563Z,6.87
2019-06-10T13:07:17.444Z,6.37
2019-06-10T13:12:17.319Z,6.55
2019-06-10T13:14:48.685Z,6.60
2019-06-10T13:17:18.490Z,7.20
2019-06-10T13:19:48.277Z,7.00
2019-06-10T13:22:18.573Z,7.00
2019-06-10T13:24:48.379Z,7.55
2019-06-10T13:27:18.097Z,7.55
2019-06-10T13:29:48.531Z,8.33
2019-06-10T13:32:18.254Z,7.05
2019-06-10T13:34:48.050Z,7.28
2019-06-10T13:37:17.790Z,7.35
2019-06-10T13:39:47.489Z,8.28
2019-06-10T13:42:17.305Z,7.25
2019-06-10T13:44:47.258Z,6.90
2019-06-10T13:47:17.681Z,7.80
2019-06-10T13:49:47.468Z,7.60
2019-06-10T13:54:49.063Z,7.95
2019-06-10T13:57:19.074Z,8.65
2019-06-10T13:59:48.871Z,7.87
2019-06-10T14:02:18.762Z,7.47
2019-06-10T14:04:48.611Z,7.30
2019-06-10T14:07:18.559Z,7.72
2019-06-10T14:09:48.399Z,8.08
2019-06-10T14:12:18.230Z,8.73
2019-06-10T14:14:49.220Z,8.35
2019-06-10T14:17:19.677Z,8.50
2019-06-10T14:19:51.411Z,8.40
2019-06-10T14:22:22.962Z,7.67
2019-06-10T14:24:53.682Z,7.85
2019-06-10T14:27:25.507Z,7.33
2019-06-10T14:29:55.473Z,7.97
2019-06-10T14:32:26.023Z,8.30
2019-06-10T14:34:57.147Z,7.75
2019-06-10T14:37:38.043Z,8.08
2019-06-10T14:39:59.736Z,7.45
2019-06-10T14:42:32.188Z,7.30
2019-06-10T14:45:04.840Z,7.95
2019-06-10T14:47:35.156Z,8.38
2019-06-10T14:50:07.060Z,7.70
2019-06-10T14:52:37.774Z,8.23
2019-06-10T14:55:09.298Z,7.72
2019-06-10T14:57:39.073Z,8.28
2019-06-10T15:00:09.896Z,8.25
2019-06-10T15:02:42.766Z,8.28
2019-06-10T15:05:15.709Z,6.85
2019-06-10T15:07:44.795Z,8.13
2019-06-10T15:10:18.222Z,6.30
2019-06-10T15:12:49.490Z,7.97
2019-06-10T15:15:21.039Z,7.12
2019-06-10T15:17:52.483Z,7.58
2019-06-10T15:20:22.872Z,7.70
2019-06-10T15:22:53.321Z,7.42
2019-06-10T15:25:27.952Z,7.67
2019-06-10T15:30:32.025Z,9.05
2019-06-10T15:33:02.996Z,6.83
2019-06-10T15:35:33.565Z,7.50
2019-06-10T15:38:04.495Z,7.15
2019-06-10T15:40:34.854Z,7.83
2019-06-10T15:43:06.329Z,7.03
2019-06-10T15:45:39.083Z,7.45
2019-06-10T15:48:10.157Z,7.72
2019-06-10T15:50:40.078Z,7.87
2019-06-10T15:53:11.118Z,8.95
2019-06-10T15:56:08.892Z,7.75
2019-06-10T15:58:15.602Z,7.90
2019-06-10T16:00:45.677Z,8.60
2019-06-10T16:03:19.333Z,8.05
2019-06-10T16:05:52.485Z,7.28
2019-06-10T16:08:22.601Z,9.13
2019-06-10T16:10:53.155Z,8.40
2019-06-10T16:13:25.609Z,7.17
2019-06-10T16:15:54.988Z,8.90
2019-06-10T16:18:27.927Z,7.47
2019-06-10T16:20:56.074Z,8.13
2019-06-10T16:23:26.851Z,9.08
2019-06-10T16:25:56.776Z,9.08
2019-06-10T16:28:26.647Z,8.65
2019-06-10T16:30:56.737Z,8.55
2019-06-10T16:33:29.140Z,9.83
2019-06-10T16:36:02.897Z,8.08
2019-06-10T16:38:34.312Z,9.75
2019-06-10T16:41:07.616Z,9.13
2019-06-10T16:43:43.374Z,8.13
2019-06-10T16:46:14.073Z,9.40
2019-06-10T16:48:44.411Z,9.25
2019-06-10T16:51:14.872Z,9.58
2019-06-10T16:53:46.520Z,9.25
2019-06-10T16:56:19.671Z,8.70
2019-06-10T16:58:56.643Z,8.43
2019-06-10T17:01:28.650Z,9.03
2019-06-10T17:03:58.155Z,8.45
2019-06-10T17:06:28.424Z,9.00
2019-06-10T17:08:58.183Z,9.90
2019-06-10T17:11:29.394Z,8.18
2019-06-10T17:13:59.574Z,9.53
2019-06-10T17:16:29.674Z,9.58
2019-06-10T17:18:59.520Z,9.78
2019-06-10T17:21:31.693Z,9.63
2019-06-10T17:24:03.238Z,10.08
2019-06-10T17:26:37.729Z,10.05
2019-06-10T17:29:04.197Z,9.38
2019-06-10T17:31:35.159Z,9.15
2019-06-10T17:34:05.959Z,9.53
2019-06-10T17:36:35.936Z,10.15
2019-06-10T17:39:12.512Z,9.40
2019-06-10T17:41:51.983Z,9.55
2019-06-10T17:44:28.887Z,9.88
2019-06-10T17:46:58.477Z,10.72
2019-06-10T17:49:28.671Z,9.68
2019-06-10T17:52:02.412Z,9.90
2019-06-10T17:54:32.492Z,10.68
2019-06-10T17:57:02.688Z,10.60
2019-06-10T17:59:35.015Z,9.93
2019-06-10T18:02:07.369Z,9.55
2019-06-10T18:04:37.157Z,10.03
2019-06-10T18:07:09.843Z,10.20
2019-06-10T18:09:39.632Z,10.48
2019-06-10T18:12:09.379Z,10.43
2019-06-10T18:14:39.080Z,9.95
2019-06-10T18:17:08.787Z,9.70
2019-06-10T18:19:39.702Z,10.75
2019-06-10T18:22:09.461Z,12.25
2019-06-10T18:24:40.207Z,10.03
2019-06-10T18:27:09.962Z,10.30
2019-06-10T18:29:39.626Z,10.60
2019-06-10T18:32:09.352Z,11.60
2019-06-10T18:34:42.638Z,9.78
2019-06-10T18:37:12.652Z,10.72
2019-06-10T18:39:43.039Z,9.95
2019-06-10T18:42:13.018Z,11.48
2019-06-10T18:44:45.500Z,11.63
2019-06-10T18:47:15.387Z,11.75
2019-06-10T18:49:45.187Z,12.37
2019-06-10T18:52:15.064Z,11.38
2019-06-10T18:54:45.026Z,11.33
2019-06-10T18:58:36.293Z,11.30
2019-06-10T19:01:07.974Z,13.30
2019-06-10T19:03:39.676Z,12.90
2019-06-10T19:06:12.337Z,11.90
2019-06-10T19:08:44.228Z,12.63
2019-06-10T19:11:13.332Z,11.40
2019-06-10T19:13:43.726Z,11.20
2019-06-10T19:16:13.904Z,11.57
2019-06-10T19:18:43.721Z,10.48
2019-06-10T19:21:13.600Z,11.85
2019-06-10T19:23:44.008Z,13.50
2019-06-10T19:26:14.089Z,13.00
2019-06-10T19:28:45.063Z,13.22
2019-06-10T19:31:15.824Z,12.75
2019-06-10T19:33:45.840Z,14.05
2019-06-10T19:36:15.706Z,13.15
2019-06-10T19:38:47.557Z,16.27
2019-06-10T19:41:17.475Z,14.65
2019-06-10T19:43:47.990Z,14.53
2019-06-10T19:46:17.969Z,15.63
2019-06-10T19:48:56.588Z,13.13
2019-06-10T19:51:19.636Z,13.28
2019-06-10T19:53:49.686Z,14.45
2019-06-10T19:56:22.485Z,13.88
2019-06-10T19:58:52.963Z,13.50
2019-06-10T20:01:23.133Z,15.63
2019-06-10T20:03:53.438Z,16.27
2019-06-10T20:06:23.428Z,14.65
2019-06-10T20:08:53.425Z,13.48
2019-06-10T20:11:24.148Z,16.75
2019-06-10T20:13:54.576Z,16.57
2019-06-10T20:16:25.426Z,15.28
2019-06-10T20:18:55.445Z,14.87
2019-06-10T20:21:25.667Z,14.80
2019-06-10T20:23:55.589Z,15.15
2019-06-10T20:26:27.807Z,15.95
2019-06-10T20:28:57.348Z,15.58
2019-06-10T20:31:27.021Z,16.60
2019-06-10T20:33:56.776Z,14.78
2019-06-10T20:36:27.235Z,16.87
2019-06-10T20:38:59.095Z,17.15
2019-06-10T20:41:29.188Z,19.77
2019-06-10T20:43:59.043Z,17.42
2019-06-10T20:46:32.348Z,17.05
2019-06-10T20:49:03.625Z,18.10
2019-06-10T20:51:48.821Z,16.15
2019-06-10T20:54:12.793Z,16.55
2019-06-10T20:56:46.805Z,16.62
2019-06-10T20:59:15.687Z,15.70
2019-06-10T21:01:50.671Z,18.00
2019-06-10T21:04:20.678Z,17.17
2019-06-10T21:06:53.628Z,17.42
2019-06-10T21:09:27.088Z,17.65
2019-06-10T21:11:57.643Z,18.83
2019-06-10T21:14:27.731Z,18.65
2019-06-10T21:16:58.671Z,19.07
2019-06-10T21:19:29.587Z,18.80
2019-06-10T21:21:59.950Z,19.62
2019-06-10T21:24:32.219Z,19.70
2019-06-10T21:27:02.867Z,20.68
2019-06-10T21:29:34.085Z,20.65
2019-06-10T21:32:04.606Z,21.05
2019-06-10T21:34:35.251Z,21.68
2019-06-10T21:37:06.352Z,23.38
2019-06-10T21:39:37.641Z,22.80
2019-06-10T21:42:08.617Z,22.58
2019-06-10T21:44:39.470Z,22.27
2019-06-10T21:47:12.813Z,21.15
2019-06-10T21:49:42.766Z,22.65
2019-06-10T21:52:13.538Z,23.45
2019-06-10T21:54:44.015Z,22.77
2019-06-10T21:57:14.785Z,22.67
2019-06-10T21:59:45.527Z,21.77
2019-06-10T22:02:17.764Z,22.82
2019-06-10T22:04:49.430Z,23.42
2019-06-10T22:07:19.539Z,23.85
2019-06-10T22:09:49.789Z,23.67
2019-06-10T22:12:20.324Z,23.22
2019-06-10T22:14:52.495Z,21.60
2019-06-10T22:17:22.332Z,24.12
2019-06-10T22:19:53.594Z,28.55
2019-06-10T22:22:24.637Z,25.85
2019-06-10T22:24:55.174Z,28.95
2019-06-10T22:27:25.754Z,26.82
2019-06-10T22:30:04.178Z,27.60
2019-06-10T22:32:33.075Z,24.35
2019-06-10T22:35:03.124Z,23.18
2019-06-10T22:37:33.039Z,24.57
2019-06-10T22:40:03.454Z,25.08
2019-06-10T22:42:33.438Z,20.12
2019-06-10T22:45:03.955Z,24.85
2019-06-10T22:47:34.070Z,23.70
2019-06-10T22:50:07.294Z,24.05
2019-06-10T22:52:35.258Z,23.90
2019-06-10T22:55:05.241Z,27.90
2019-06-10T22:57:36.565Z,27.80
2019-06-10T23:00:07.798Z,26.40
2019-06-10T23:02:38.395Z,26.68
2019-06-10T23:05:08.613Z,27.00
2019-06-10T23:07:38.407Z,29.10
2019-06-10T23:10:09.170Z,29.95
2019-06-10T23:12:38.831Z,28.40
2019-06-10T23:15:09.028Z,29.70
2019-06-10T23:17:38.689Z,34.30
2019-06-10T23:20:08.827Z,29.05
2019-06-10T23:22:38.493Z,24.82
2019-06-10T23:25:09.441Z,28.90
2019-06-10T23:27:41.065Z,25.35
2019-06-10T23:30:12.049Z,26.17
2019-06-10T23:32:42.255Z,29.37
2019-06-10T23:35:12.439Z,33.15
2019-06-10T23:37:42.696Z,33.83
2019-06-10T23:40:12.817Z,34.48
2019-06-10T23:42:42.922Z,31.73
2019-06-10T23:45:12.928Z,34.50
2019-06-10T23:47:43.305Z,37.83
2019-06-10T23:50:13.333Z,38.38
2019-06-10T23:52:44.636Z,37.93
2019-06-10T23:55:14.466Z,39.83
2019-06-10T23:57:44.210Z,32.28
